Time;durP1;ratioP1;P1;durP2;ratioP2;P2;SDS_P1;SDS_P2;PMS_P1;PMS_P2;Temp;Humidity;BMP_temperature;BMP_pressure;BME280_temperature;BME280_humidity;BME280_pressure;Samples;Min_cycle;Max_cycle;Signal;HPM_P1;HPM_P2
2022/07/13 00:01:00;;;;;;;11.90;7.82;;;;;;;24.34;54.00;102028.16;5035969;28;20033;-72
2022/07/13 00:03:25;;;;;;;9.05;7.47;;;;;;;24.42;54.50;102017.19;5035737;28;20029;-72
2022/07/13 00:05:51;;;;;;;9.82;7.95;;;;;;;24.47;53.48;102017.94;5035561;28;20427;-71
2022/07/13 00:08:16;;;;;;;14.90;8.07;;;;;;;24.40;54.06;102016.31;5035859;28;20040;-72
2022/07/13 00:10:41;;;;;;;10.77;8.10;;;;;;;24.39;53.77;102014.56;5035772;28;20530;-72
2022/07/13 00:13:07;;;;;;;14.98;7.95;;;;;;;24.40;53.80;102008.22;5034275;28;20030;-71
2022/07/13 00:15:33;;;;;;;13.10;7.40;;;;;;;24.46;52.96;102003.53;5035723;28;20030;-72
2022/07/13 00:17:59;;;;;;;15.13;8.05;;;;;;;24.43;53.13;101990.09;5035321;28;20046;-71
2022/07/13 00:20:27;;;;;;;13.90;8.35;;;;;;;24.28;53.71;101986.91;5035432;28;20078;-72
2022/07/13 00:22:52;;;;;;;10.95;7.55;;;;;;;24.35;53.33;101977.72;5035423;28;20480;-71
2022/07/13 00:25:17;;;;;;;11.90;7.80;;;;;;;24.29;53.32;101973.38;5035720;28;20101;-72
2022/07/13 00:27:43;;;;;;;11.00;7.72;;;;;;;24.32;53.37;101975.09;5035292;28;20034;-71
2022/07/13 00:30:09;;;;;;;13.93;8.55;;;;;;;24.21;52.94;101972.69;5035482;28;20040;-71
2022/07/13 00:32:34;;;;;;;10.35;8.20;;;;;;;24.19;53.33;101977.25;5035170;28;20026;-71
2022/07/13 00:35:00;;;;;;;12.13;8.27;;;;;;;24.21;53.10;101972.69;5034888;28;20104;-72
2022/07/13 00:37:25;;;;;;;10.98;8.07;;;;;;;24.27;52.62;101969.81;5035441;28;20479;-71
2022/07/13 00:39:51;;;;;;;10.85;8.38;;;;;;;24.19;52.90;101958.34;5034022;28;20445;-72
2022/07/13 00:42:16;;;;;;;9.80;7.18;;;;;;;24.23;53.32;101958.22;5035315;28;20494;-72
2022/07/13 00:44:41;;;;;;;9.45;7.40;;;;;;;24.21;52.79;101948.41;5033831;28;20052;-72
2022/07/13 00:47:07;;;;;;;12.10;7.82;;;;;;;24.16;52.76;101943.13;5035177;28;20026;-72
2022/07/13 00:49:32;;;;;;;11.05;7.82;;;;;;;24.13;52.49;101932.41;5034736;28;20025;-72
2022/07/13 00:51:58;;;;;;;10.93;7.10;;;;;;;24.27;52.14;101939.22;5034989;28;20025;-72
2022/07/13 00:54:28;;;;;;;10.18;7.60;;;;;;;24.24;52.08;101937.50;5034878;28;20056;-72
2022/07/13 00:56:55;;;;;;;9.15;7.00;;;;;;;24.17;51.92;101935.91;5035011;28;20029;-72
2022/07/13 00:59:21;;;;;;;10.20;7.22;;;;;;;24.18;51.86;101922.34;5034735;28;20109;-72
2022/07/13 01:01:46;;;;;;;9.27;7.50;;;;;;;24.13;51.92;101942.31;5034740;28;20128;-72
2022/07/13 01:04:11;;;;;;;8.75;7.55;;;;;;;24.10;51.75;101937.88;5034489;28;20026;-72
2022/07/13 01:06:37;;;;;;;14.65;7.65;;;;;;;24.06;51.77;101946.13;5034660;28;20544;-72
2022/07/13 01:09:03;;;;;;;12.02;7.85;;;;;;;24.02;51.65;101931.81;5034632;28;20099;-72
2022/07/13 01:11:29;;;;;;;11.45;6.28;;;;;;;24.09;51.47;101936.13;5034330;28;20037;-72
2022/07/13 01:13:55;;;;;;;8.57;6.45;;;;;;;24.09;51.63;101928.00;5034637;28;20025;-72
2022/07/13 01:16:22;;;;;;;10.30;6.97;;;;;;;24.07;51.79;101929.88;5034541;28;20028;-72
2022/07/13 01:18:48;;;;;;;9.60;7.35;;;;;;;24.00;51.92;101933.69;5033974;28;20495;-72
2022/07/13 01:21:15;;;;;;;10.10;7.30;;;;;;;23.96;51.91;101922.06;5034440;28;20048;-72
2022/07/13 01:23:41;;;;;;;10.43;6.68;;;;;;;24.00;51.74;101920.19;5034255;28;20117;-72
2022/07/13 01:26:07;;;;;;;15.23;7.38;;;;;;;23.80;52.14;101914.44;5034230;28;20120;-72
2022/07/13 01:28:33;;;;;;;13.07;7.43;;;;;;;23.69;52.54;101926.41;5034211;28;20041;-72
2022/07/13 01:30:58;;;;;;;12.43;6.93;;;;;;;23.65;52.26;101921.16;5034245;28;20025;-72
2022/07/13 01:33:24;;;;;;;12.43;6.90;;;;;;;23.72;51.52;101915.56;5033916;28;20018;-72
2022/07/13 01:35:49;;;;;;;13.90;6.80;;;;;;;23.75;52.07;101928.06;5034012;28;20034;-72
2022/07/13 01:38:15;;;;;;;11.50;6.70;;;;;;;23.79;51.47;101923.47;5034160;28;20360;-72
2022/07/13 01:40:43;;;;;;;8.77;6.90;;;;;;;23.77;51.26;101920.81;5034044;28;20109;-72
2022/07/13 01:43:09;;;;;;;9.55;6.88;;;;;;;23.81;52.50;101910.81;5034167;28;20112;-72
2022/07/13 01:45:34;;;;;;;8.45;6.45;;;;;;;23.89;52.40;101917.75;5032836;28;20176;-72
2022/07/13 01:48:00;;;;;;;11.25;6.32;;;;;;;23.94;52.13;101917.66;5033789;28;20455;-72
2022/07/13 01:50:27;;;;;;;9.82;6.50;;;;;;;23.84;54.36;101914.31;5033966;28;20030;-72
2022/07/13 01:52:53;;;;;;;12.23;6.18;;;;;;;23.81;53.96;101908.09;5033875;28;20475;-72
2022/07/13 01:55:19;;;;;;;9.95;6.50;;;;;;;23.63;54.34;101909.47;5033734;28;20030;-72
2022/07/13 01:57:44;;;;;;;8.93;6.20;;;;;;;23.55;54.31;101909.66;5033697;28;20065;-72
2022/07/13 02:00:13;;;;;;;8.55;5.97;;;;;;;23.43;54.75;101907.31;5033774;28;20025;-72
2022/07/13 02:02:39;;;;;;;9.45;5.90;;;;;;;23.47;53.10;101914.38;5033691;28;20029;-72
2022/07/13 02:05:04;;;;;;;8.32;6.05;;;;;;;23.53;53.14;101910.63;5033361;28;20431;-72
2022/07/13 02:07:30;;;;;;;7.03;5.03;;;;;;;23.58;53.99;101906.88;5033479;28;20049;-71
2022/07/13 02:09:55;;;;;;;10.32;5.70;;;;;;;23.60;55.57;101904.16;5033867;28;20025;-72
2022/07/13 02:12:21;;;;;;;11.10;5.43;;;;;;;23.64;54.67;101904.03;5033413;28;20037;-72
2022/07/13 02:14:47;;;;;;;9.15;5.63;;;;;;;23.60;54.42;101896.94;5033595;28;20379;-71
2022/07/13 02:17:13;;;;;;;8.73;5.55;;;;;;;23.64;54.82;101895.94;5032952;28;20029;-71
2022/07/13 02:19:38;;;;;;;8.25;5.13;;;;;;;23.70;54.96;101893.09;5033225;28;20033;-72
2022/07/13 02:22:04;;;;;;;7.93;5.47;;;;;;;23.69;55.24;101882.34;5033386;28;20018;-71
2022/07/13 02:24:29;;;;;;;8.27;5.30;;;;;;;23.74;54.21;101880.41;5033212;28;20029;-72
2022/07/13 02:26:54;;;;;;;7.47;4.72;;;;;;;23.70;53.90;101876.03;5033295;28;20483;-71
2022/07/13 02:29:20;;;;;;;6.82;4.70;;;;;;;23.63;53.41;101880.66;5033127;28;20057;-71
2022/07/13 02:31:45;;;;;;;8.35;4.60;;;;;;;23.57;52.56;101888.03;5031900;28;20038;-71
2022/07/13 02:34:10;;;;;;;7.20;4.47;;;;;;;23.60;54.87;101885.28;5031595;28;20029;-72
2022/07/13 02:36:36;;;;;;;11.50;4.65;;;;;;;23.67;53.96;101890.47;5032403;28;20021;-72
2022/07/13 02:39:02;;;;;;;7.05;4.75;;;;;;;23.63;54.86;101880.66;5032994;28;20030;-72
2022/07/13 02:41:27;;;;;;;6.30;4.90;;;;;;;23.58;54.37;101876.31;5033002;28;20026;-72
2022/07/13 02:43:52;;;;;;;8.88;4.82;;;;;;;23.65;54.07;101877.97;5033059;28;20075;-72
2022/07/13 02:46:18;;;;;;;9.10;4.45;;;;;;;23.58;54.42;101866.41;5032919;28;20383;-72
2022/07/13 02:48:43;;;;;;;8.40;4.95;;;;;;;23.56;54.87;101868.28;5033094;28;20088;-72
2022/07/13 02:51:09;;;;;;;7.72;4.60;;;;;;;23.47;55.57;101855.91;5031683;28;20471;-71
2022/07/13 02:53:34;;;;;;;6.88;4.40;;;;;;;23.50;52.63;101847.72;5033126;28;20029;-72
2022/07/13 02:55:59;;;;;;;6.45;4.43;;;;;;;23.44;52.73;101853.28;5032849;28;20079;-72
2022/07/13 02:58:25;;;;;;;7.40;4.55;;;;;;;23.44;51.95;101861.38;5032922;28;20044;-72
2022/07/13 03:00:51;;;;;;;6.35;4.40;;;;;;;23.35;52.72;101864.34;5032817;28;20479;-73
2022/07/13 03:03:16;;;;;;;7.97;4.45;;;;;;;23.34;52.12;101867.97;5031540;28;20025;-72
2022/07/13 03:05:42;;;;;;;7.80;4.35;;;;;;;23.34;54.15;101867.97;5032837;28;20547;-72
2022/07/13 03:08:07;;;;;;;6.43;4.30;;;;;;;23.35;53.94;101867.03;5032739;28;20032;-72
2022/07/13 03:10:32;;;;;;;10.52;4.45;;;;;;;23.39;53.61;101868.72;5032828;28;20057;-72
2022/07/13 03:12:58;;;;;;;10.02;4.50;;;;;;;23.39;52.93;101865.16;5032655;28;20022;-72
2022/07/13 03:15:24;;;;;;;7.97;4.05;;;;;;;23.33;51.87;101873.38;5032921;28;20483;-72
2022/07/13 03:17:50;;;;;;;9.57;4.65;;;;;;;23.31;52.28;101870.72;5031157;28;20380;-71
2022/07/13 03:20:15;;;;;;;9.48;4.47;;;;;;;23.31;51.94;101865.34;5032385;28;20487;-72
2022/07/13 03:22:41;;;;;;;10.40;4.53;;;;;;;23.36;52.20;101862.53;5032758;28;20022;-72
2022/07/13 03:25:06;;;;;;;6.03;3.85;;;;;;;23.30;52.35;101854.56;5032545;28;20083;-72
2022/07/13 03:27:32;;;;;;;7.70;4.20;;;;;;;23.20;52.71;101857.50;5032704;28;20479;-71
2022/07/13 03:29:57;;;;;;;5.13;3.90;;;;;;;23.17;52.50;101852.22;5032410;28;20442;-71
2022/07/13 03:32:23;;;;;;;8.45;3.80;;;;;;;23.12;52.03;101855.94;5032552;28;20034;-72
2022/07/13 03:34:48;;;;;;;6.75;3.60;;;;;;;23.12;51.36;101855.94;5032390;28;20026;-71
2022/07/13 03:37:14;;;;;;;5.32;3.70;;;;;;;23.05;50.76;101855.22;5032637;28;20080;-72
2022/07/13 03:39:39;;;;;;;5.35;3.50;;;;;;;23.03;51.44;101842.69;5032439;28;20068;-71
2022/07/13 03:42:05;;;;;;;7.30;4.00;;;;;;;22.97;51.45;101841.91;5032430;28;20029;-72
2022/07/13 03:44:31;;;;;;;6.25;3.55;;;;;;;22.94;50.90;101850.06;5032486;28;20036;-72
2022/07/13 03:46:57;;;;;;;8.80;3.75;;;;;;;22.93;51.45;101850.13;5032469;28;20025;-71
2022/07/13 03:49:22;;;;;;;8.25;3.90;;;;;;;22.92;50.88;101853.75;5036172;28;20463;-72
2022/07/13 03:51:48;;;;;;;6.32;3.80;;;;;;;22.88;51.37;101852.91;5036045;28;20029;-72
2022/07/13 03:54:14;;;;;;;5.90;4.00;;;;;;;22.88;51.15;101846.63;5036085;28;20034;-72
2022/07/13 03:56:39;;;;;;;7.88;4.03;;;;;;;22.92;51.68;101841.16;5035991;28;20024;-71
2022/07/13 03:59:05;;;;;;;5.65;4.10;;;;;;;22.97;51.46;101849.13;5035870;28;20479;-71
2022/07/13 04:01:31;;;;;;;7.75;4.30;;;;;;;22.94;51.51;101849.19;5035794;28;20026;-71
2022/07/13 04:03:58;;;;;;;8.77;4.22;;;;;;;22.94;51.64;101844.69;5035778;28;20025;-71
2022/07/13 04:06:24;;;;;;;9.60;4.22;;;;;;;22.91;51.59;101844.78;5035991;28;20483;-71
2022/07/13 04:08:49;;;;;;;7.18;4.05;;;;;;;22.91;51.52;101839.41;5035719;28;20021;-72
2022/07/13 04:11:15;;;;;;;8.07;3.65;;;;;;;22.96;51.64;101842.84;5035760;28;20108;-72
2022/07/13 04:13:40;;;;;;;9.45;3.90;;;;;;;22.97;51.33;101846.44;5035578;28;20025;-71
2022/07/13 04:16:06;;;;;;;5.55;3.88;;;;;;;23.00;50.72;101843.66;5034200;28;20079;-71
2022/07/13 04:18:32;;;;;;;7.18;3.90;;;;;;;23.05;50.99;101843.56;5035274;28;20133;-71
2022/07/13 04:20:58;;;;;;;5.50;3.63;;;;;;;23.07;50.95;101847.97;5035695;28;20391;-71
2022/07/13 04:23:23;;;;;;;8.30;3.70;;;;;;;23.04;50.62;101830.97;5035524;28;20026;-71
2022/07/13 04:25:49;;;;;;;6.32;3.80;;;;;;;22.97;50.96;101833.84;5035389;28;20113;-72
2022/07/13 04:28:14;;;;;;;5.43;3.72;;;;;;;22.93;51.09;101828.56;5034141;28;20057;-71
2022/07/13 04:30:39;;;;;;;8.07;3.92;;;;;;;22.92;50.75;101824.09;5035141;28;20029;-72
2022/07/13 04:33:05;;;;;;;7.90;3.78;;;;;;;22.90;50.71;101824.13;5035128;28;20125;-72
2022/07/13 04:35:30;;;;;;;8.18;3.80;;;;;;;22.89;51.00;101824.13;5033855;28;20549;-71
2022/07/13 04:37:55;;;;;;;6.28;3.70;;;;;;;22.89;50.33;101816.06;5035241;28;20026;-72
2022/07/13 04:40:21;;;;;;;9.82;3.90;;;;;;;22.88;50.85;101820.56;5035138;28;20055;-72
2022/07/13 04:42:46;;;;;;;10.38;3.90;;;;;;;22.91;51.58;101816.91;5035201;28;20407;-72
2022/07/13 04:45:12;;;;;;;11.70;3.80;;;;;;;22.96;51.39;101832.06;5034993;28;20088;-72
2022/07/13 04:47:38;;;;;;;6.68;3.90;;;;;;;23.00;51.00;101827.50;5035054;28;20502;-71
2022/07/13 04:50:04;;;;;;;6.20;3.60;;;;;;;23.03;51.15;101821.13;5035013;28;20026;-71
2022/07/13 04:52:30;;;;;;;7.20;3.75;;;;;;;23.06;51.54;101824.63;5050360;28;20475;-71
2022/07/13 04:54:55;;;;;;;5.80;3.80;;;;;;;23.11;51.25;101825.38;5034975;28;20033;-71
2022/07/13 04:57:20;;;;;;;6.40;4.10;;;;;;;23.11;51.43;101819.13;5034945;28;20546;-72
2022/07/13 04:59:46;;;;;;;7.95;3.95;;;;;;;23.12;51.59;101819.06;5034393;28;20075;-72
2022/07/13 05:02:11;;;;;;;9.10;4.10;;;;;;;23.13;51.30;101826.25;5034809;28;20083;-72
2022/07/13 05:04:37;;;;;;;8.10;3.88;;;;;;;23.11;50.98;101822.69;5034837;28;20375;-71
2022/07/13 05:07:02;;;;;;;7.38;4.20;;;;;;;23.19;51.09;101822.50;5034635;28;20026;-72
2022/07/13 05:09:28;;;;;;;7.35;4.00;;;;;;;23.17;50.95;101818.97;5034779;28;20056;-72
2022/07/13 05:11:53;;;;;;;7.82;4.00;;;;;;;23.19;51.00;101818.00;5033173;28;20505;-72
2022/07/13 05:14:18;;;;;;;5.07;3.75;;;;;;;23.22;50.92;101814.34;5034667;28;20030;-72
2022/07/13 05:16:44;;;;;;;7.53;4.20;;;;;;;23.21;51.46;101809.84;5034039;28;20531;-72
2022/07/13 05:19:10;;;;;;;6.88;3.95;;;;;;;23.27;51.69;101816.91;5034222;28;20065;-72
2022/07/13 05:21:36;;;;;;;8.90;4.10;;;;;;;23.29;51.04;101826.72;5034214;28;20128;-72
2022/07/13 05:24:02;;;;;;;6.88;4.05;;;;;;;23.30;50.98;101816.81;5034414;28;20100;-72
2022/07/13 05:26:27;;;;;;;7.72;4.00;;;;;;;23.32;50.90;101813.16;5034259;28;20387;-72
2022/07/13 05:28:53;;;;;;;5.82;3.80;;;;;;;23.34;51.36;101814.03;5034276;28;20033;-72
2022/07/13 05:31:18;;;;;;;8.27;3.53;;;;;;;23.31;51.22;101818.59;5034322;28;20084;-71
2022/07/13 05:33:44;;;;;;;9.40;3.95;;;;;;;23.28;51.76;101815.97;5034129;28;20030;-71
2022/07/13 05:36:10;;;;;;;7.25;3.58;;;;;;;23.27;51.86;101820.50;5034131;28;20018;-71
2022/07/13 05:38:35;;;;;;;7.03;3.90;;;;;;;23.28;52.14;101824.94;5034201;28;20028;-71
2022/07/13 05:41:00;;;;;;;6.60;3.90;;;;;;;23.35;51.68;101817.59;5034057;28;20021;-71
2022/07/13 05:43:26;;;;;;;7.97;3.83;;;;;;;23.35;51.55;101823.88;5033953;28;20034;-71
2022/07/13 05:45:51;;;;;;;7.70;3.80;;;;;;;23.39;51.22;101828.25;5033940;28;20041;-71
2022/07/13 05:48:17;;;;;;;7.85;4.15;;;;;;;23.47;51.53;101825.38;5033856;28;20026;-71
2022/07/13 05:50:43;;;;;;;8.10;3.95;;;;;;;23.49;50.99;101839.69;5033844;28;20025;-71
2022/07/13 05:53:08;;;;;;;6.60;3.90;;;;;;;23.49;50.65;101831.59;5033741;28;20483;-72
2022/07/13 05:55:34;;;;;;;13.75;3.60;;;;;;;23.47;50.70;101841.56;5033874;28;20025;-72
2022/07/13 05:57:59;;;;;;;8.07;3.55;;;;;;;23.49;50.62;101843.25;5033675;28;20037;-71
2022/07/13 06:00:24;;;;;;;6.93;3.60;;;;;;;23.57;50.44;101842.19;5033426;28;20119;-71
2022/07/13 06:02:50;;;;;;;5.65;3.42;;;;;;;23.62;49.75;101845.63;5033680;28;20021;-71
2022/07/13 06:05:15;;;;;;;6.47;3.90;;;;;;;23.74;50.14;101848.03;5033426;28;20032;-72
2022/07/13 06:07:41;;;;;;;7.03;3.90;;;;;;;23.84;50.23;101830.63;5033684;28;20079;-71
2022/07/13 06:10:07;;;;;;;5.95;3.50;;;;;;;23.98;49.33;101836.53;5033292;28;20022;-71
2022/07/13 06:12:32;;;;;;;9.35;3.83;;;;;;;24.09;49.99;101846.13;5033075;28;20540;-72
2022/07/13 06:14:58;;;;;;;11.07;3.72;;;;;;;24.17;48.82;101842.25;5033281;28;20113;-71
2022/07/13 06:17:23;;;;;;;6.22;3.35;;;;;;;24.15;49.36;101843.22;5033410;28;20375;-70
2022/07/13 06:19:49;;;;;;;11.05;3.50;;;;;;;24.24;49.07;101846.56;5033267;28;20152;-71
2022/07/13 06:22:15;;;;;;;8.27;3.72;;;;;;;24.28;48.74;101839.22;5033174;28;20033;-71
2022/07/13 06:24:41;;;;;;;7.40;3.55;;;;;;;24.25;49.39;101847.44;5033330;28;20075;-70
2022/07/13 06:27:07;;;;;;;12.48;3.60;;;;;;;24.32;49.15;101850.81;5033150;28;20483;-72
2022/07/13 06:29:33;;;;;;;6.15;3.65;;;;;;;24.31;48.63;101836.44;5033124;28;20036;-71
2022/07/13 06:31:58;;;;;;;11.15;3.67;;;;;;;24.43;48.63;101843.31;5031935;28;20029;-71
2022/07/13 06:34:24;;;;;;;6.07;3.60;;;;;;;24.51;49.32;101849.38;5031803;28;20067;-71
2022/07/13 06:36:49;;;;;;;8.07;3.72;;;;;;;24.60;48.05;101842.78;5033039;28;20025;-71
2022/07/13 06:39:15;;;;;;;7.30;3.63;;;;;;;24.65;47.62;101838.13;5032933;28;20491;-71
2022/07/13 06:41:40;;;;;;;7.07;3.70;;;;;;;24.78;48.53;101836.78;5033191;28;20030;-71
2022/07/13 06:44:06;;;;;;;9.57;3.45;;;;;;;24.90;47.79;101828.25;5031509;28;20412;-71
2022/07/13 06:46:31;;;;;;;8.40;3.70;;;;;;;24.99;47.78;101829.78;5033016;28;20037;-71
2022/07/13 06:48:56;;;;;;;7.45;3.75;;;;;;;25.03;47.49;101841.38;5032888;28;20483;-71
2022/07/13 06:51:23;;;;;;;5.82;3.85;;;;;;;25.04;47.31;101827.78;5033099;28;20026;-72
2022/07/13 06:53:48;;;;;;;6.80;3.90;;;;;;;25.07;47.86;101830.41;5033114;28;20375;-72
2022/07/13 06:56:13;;;;;;;8.77;3.70;;;;;;;25.10;47.80;101824.94;5033005;28;20026;-72
2022/07/13 06:58:39;;;;;;;5.90;3.70;;;;;;;25.21;47.61;101830.84;5032621;28;20030;-72
2022/07/13 07:01:05;;;;;;;7.55;3.72;;;;;;;25.28;47.70;101838.75;5032929;28;20033;-72
2022/07/13 07:03:30;;;;;;;7.75;4.35;;;;;;;25.44;47.51;101831.88;5032760;28;20021;-72
2022/07/13 07:05:56;;;;;;;9.68;3.90;;;;;;;25.62;47.68;101838.44;5032733;28;20506;-72
2022/07/13 07:08:22;;;;;;;9.55;4.60;;;;;;;25.60;47.32;101834.91;5032798;28;20022;-72
2022/07/13 07:10:47;;;;;;;9.07;4.30;;;;;;;25.65;47.25;101843.72;5032736;28;20101;-72
2022/07/13 07:13:14;;;;;;;9.85;4.25;;;;;;;25.70;48.22;101839.06;5032752;28;20029;-73
2022/07/13 07:15:39;;;;;;;8.77;4.80;;;;;;;25.75;47.08;101834.34;5032684;28;20438;-72
2022/07/13 07:18:05;;;;;;;9.32;4.70;;;;;;;25.76;47.67;101841.53;5032515;28;20038;-72
2022/07/13 07:20:30;;;;;;;9.85;5.20;;;;;;;25.77;47.65;101839.72;5032641;28;20021;-72
2022/07/13 07:22:56;;;;;;;12.18;4.70;;;;;;;25.82;47.99;101843.16;5034445;28;20029;-72
2022/07/13 07:25:21;;;;;;;7.47;4.90;;;;;;;25.81;47.74;101844.09;5036675;28;20060;-72
2022/07/13 07:27:48;;;;;;;10.30;5.32;;;;;;;25.90;48.22;101841.91;5036630;28;20026;-72
2022/07/13 07:30:13;;;;;;;9.63;5.15;;;;;;;26.24;47.62;101837.94;5036567;28;20061;-72
2022/07/13 07:32:39;;;;;;;9.40;5.50;;;;;;;26.65;47.21;101833.63;5036491;28;20060;-73
2022/07/13 07:35:06;;;;;;;9.52;5.65;;;;;;;26.89;45.61;101833.53;5036346;28;20056;-72
2022/07/13 07:37:33;;;;;;;10.07;4.97;;;;;;;27.00;45.62;101839.41;5036331;28;20033;-72
2022/07/13 07:39:59;;;;;;;8.60;4.97;;;;;;;26.94;46.07;101831.53;5036344;28;20022;-72
2022/07/13 07:42:24;;;;;;;9.45;4.80;;;;;;;27.03;45.83;101830.25;5036163;28;20024;-73
2022/07/13 07:44:50;;;;;;;9.52;5.22;;;;;;;27.12;46.89;101825.34;5036350;28;20590;-72
2022/07/13 07:47:16;;;;;;;10.93;4.90;;;;;;;27.21;46.15;101824.97;5036376;28;20466;-72
2022/07/13 07:49:42;;;;;;;8.60;4.97;;;;;;;27.16;46.44;101827.00;5036338;28;20555;-72
2022/07/13 07:52:08;;;;;;;8.98;5.50;;;;;;;27.19;46.68;101825.97;5036162;28;20026;-73
2022/07/13 07:54:34;;;;;;;10.85;5.30;;;;;;;27.15;45.97;101836.09;5036099;28;20045;-72
2022/07/13 07:56:59;;;;;;;10.95;5.57;;;;;;;27.12;46.86;101829.91;5035903;28;20041;-72
2022/07/13 07:59:26;;;;;;;11.65;5.28;;;;;;;27.17;47.11;101830.59;5035836;28;20026;-73
2022/07/13 08:01:51;;;;;;;9.88;5.30;;;;;;;27.31;46.38;101824.56;5035824;28;20475;-73
2022/07/13 08:04:17;;;;;;;14.35;5.35;;;;;;;27.55;46.56;101822.59;5035805;28;20036;-73
2022/07/13 08:06:42;;;;;;;9.10;5.18;;;;;;;27.56;46.72;101819.81;5035811;28;20034;-72
2022/07/13 08:09:08;;;;;;;12.38;5.75;;;;;;;27.54;46.70;101820.84;5035912;28;20036;-72
2022/07/13 08:11:33;;;;;;;12.98;5.18;;;;;;;27.68;46.77;101818.38;5035501;28;20025;-73
2022/07/13 08:13:59;;;;;;;12.77;5.90;;;;;;;27.78;45.66;101822.47;5035791;28;20029;-72
2022/07/13 08:16:24;;;;;;;12.32;6.05;;;;;;;27.79;46.50;101826.06;5035760;28;20104;-73
2022/07/13 08:18:49;;;;;;;7.25;5.70;;;;;;;27.73;45.75;101827.22;5035473;28;20559;-72
2022/07/13 08:21:15;;;;;;;8.68;6.22;;;;;;;27.57;46.86;101829.69;5035570;28;20030;-72
2022/07/13 08:23:52;;;;;;;8.57;5.38;;;;;;;27.63;46.58;101843.03;5035916;28;20112;-72
2022/07/13 08:26:25;;;;;;;12.88;6.13;;;;;;;27.66;47.32;101831.13;5035605;28;20457;-73
2022/07/13 08:28:52;;;;;;;11.63;6.03;;;;;;;27.63;47.23;101842.16;5035488;28;20029;-73
2022/07/13 08:31:20;;;;;;;14.15;6.40;;;;;;;27.75;47.79;101832.56;5035464;28;20033;-72
2022/07/13 08:39:13;;;;;;;9.40;5.15;;;;;;;28.31;46.74;101837.19;5034476;28;20048;-73
2022/07/13 08:41:40;;;;;;;11.63;5.90;;;;;;;28.48;45.92;101841.84;5035298;28;20390;-72
2022/07/13 08:44:05;;;;;;;8.88;5.60;;;;;;;28.51;45.98;101830.84;5035182;28;20028;-73
2022/07/13 08:46:31;;;;;;;9.90;5.57;;;;;;;28.59;45.59;101834.94;5034868;28;20021;-73
2022/07/13 08:48:57;;;;;;;15.07;5.40;;;;;;;28.66;44.26;101844.59;5035073;28;20529;-73
2022/07/13 08:51:24;;;;;;;8.20;5.03;;;;;;;28.78;44.67;101840.38;5035094;28;20057;-73
2022/07/13 08:53:51;;;;;;;15.32;4.82;;;;;;;28.86;44.64;101843.56;5035209;28;20483;-73
2022/07/13 08:56:17;;;;;;;17.48;5.70;;;;;;;28.86;45.42;101848.13;5034789;28;20055;-73
2022/07/13 08:58:43;;;;;;;10.85;5.72;;;;;;;28.89;45.14;101845.28;5034697;28;20060;-72
2022/07/13 09:01:09;;;;;;;8.23;5.20;;;;;;;28.95;44.24;101844.97;5034862;28;20100;-73
2022/07/13 09:03:35;;;;;;;14.18;5.25;;;;;;;29.08;44.79;101842.53;5034388;28;20021;-72
2022/07/13 09:06:01;;;;;;;7.97;5.22;;;;;;;29.34;43.76;101841.19;5034738;28;20112;-73
2022/07/13 09:08:26;;;;;;;9.65;4.72;;;;;;;29.43;43.65;101846.16;5034685;28;20018;-73
2022/07/13 09:10:57;;;;;;;9.77;4.30;;;;;;;29.50;43.34;101846.69;5034760;28;20509;-73
2022/07/13 09:13:41;;;;;;;5.50;3.60;;;;;;;29.71;42.64;101850.16;5034634;28;20022;-73
2022/07/13 09:16:20;;;;;;;9.77;4.15;;;;;;;29.64;42.64;101857.81;5034366;28;20116;-73
2022/07/13 09:18:48;;;;;;;7.97;3.97;;;;;;;29.74;41.54;101852.72;5034230;28;20080;-72
2022/07/13 09:21:15;;;;;;;6.70;3.45;;;;;;;29.81;40.77;101848.72;5034344;28;20025;-72
2022/07/13 09:23:40;;;;;;;6.75;3.55;;;;;;;29.86;40.29;101852.97;5033163;28;20033;-72
2022/07/13 09:26:07;;;;;;;6.75;3.70;;;;;;;29.86;39.92;101858.41;5034326;28;20132;-73
2022/07/13 09:28:44;;;;;;;7.78;3.53;;;;;;;29.84;40.86;101848.53;5034618;28;20030;-73
2022/07/13 09:31:09;;;;;;;7.43;3.88;;;;;;;29.90;40.09;101860.00;5034270;28;20490;-72
2022/07/13 09:33:38;;;;;;;6.85;4.18;;;;;;;29.88;40.59;101856.47;5034086;28;20018;-72
2022/07/13 09:36:14;;;;;;;6.45;4.05;;;;;;;29.97;40.42;101860.53;5034294;28;20034;-73
2022/07/13 09:38:44;;;;;;;5.72;3.70;;;;;;;29.82;40.42;101854.09;5033985;28;20028;-73
2022/07/13 09:41:17;;;;;;;9.48;3.75;;;;;;;29.81;40.42;101856.91;5034054;28;20471;-72
2022/07/13 09:46:52;;;;;;;5.68;3.58;;;;;;;29.54;40.34;101868.25;5033790;28;20115;-73
2022/07/13 09:49:19;;;;;;;8.30;3.97;;;;;;;29.40;40.68;101866.25;5033960;28;20053;-72
2022/07/13 09:51:45;;;;;;;8.40;3.85;;;;;;;29.30;41.05;101855.94;5033678;28;20037;-72
2022/07/13 09:54:12;;;;;;;6.22;3.88;;;;;;;29.18;39.72;101866.47;5034078;28;20022;-72
2022/07/13 09:56:43;;;;;;;9.70;3.60;;;;;;;29.01;41.13;101858.28;5033703;28;20053;-72
2022/07/13 09:59:10;;;;;;;7.57;3.90;;;;;;;29.08;40.60;101864.28;5033722;28;20090;-73
2022/07/13 10:01:35;;;;;;;10.02;3.80;;;;;;;29.08;41.07;101864.28;5033810;28;20025;-72
2022/07/13 10:04:02;;;;;;;9.15;3.67;;;;;;;29.03;40.63;101860.94;5033565;28;20372;-73
2022/07/13 10:06:27;;;;;;;9.68;3.90;;;;;;;29.05;40.77;101868.06;5032416;28;20069;-73
2022/07/13 10:08:54;;;;;;;7.75;3.85;;;;;;;29.16;40.37;101865.69;5032215;28;20065;-72
2022/07/13 10:11:20;;;;;;;5.63;3.55;;;;;;;29.36;39.84;101869.22;5033556;28;20029;-72
2022/07/13 10:13:46;;;;;;;5.43;3.40;;;;;;;29.36;39.68;101863.78;5033504;28;20017;-71
2022/07/13 10:16:12;;;;;;;8.93;3.67;;;;;;;29.46;40.19;101870.50;5033633;28;20490;-72
2022/07/13 10:18:41;;;;;;;7.00;3.85;;;;;;;29.52;40.18;101875.63;5033017;28;20495;-72
2022/07/13 10:21:18;;;;;;;8.50;3.65;;;;;;;29.51;40.40;101859.34;5033193;28;20479;-72
2022/07/13 10:23:44;;;;;;;11.57;3.55;;;;;;;29.62;40.63;101868.75;5033428;28;20368;-72
2022/07/13 10:26:31;;;;;;;5.97;3.58;;;;;;;29.78;40.16;101870.69;5033252;28;20032;-72
2022/07/13 10:29:00;;;;;;;5.70;3.42;;;;;;;29.76;39.91;101876.19;5033329;28;20044;-72
2022/07/13 10:31:27;;;;;;;7.38;3.30;;;;;;;29.67;38.96;101877.56;5033023;28;20049;-73
2022/07/13 10:33:52;;;;;;;8.25;3.40;;;;;;;29.68;38.85;101876.63;5033274;28;20718;-73
2022/07/13 10:36:51;;;;;;;6.47;3.67;;;;;;;29.82;39.82;101878.59;5033107;28;20045;-72
2022/07/13 10:39:21;;;;;;;5.63;3.60;;;;;;;29.81;38.20;101881.44;5033041;28;20475;-72
2022/07/13 10:42:03;;;;;;;6.00;3.30;;;;;;;29.83;38.06;101874.03;5033070;28;20040;-72
2022/07/13 10:44:29;;;;;;;7.68;3.15;;;;;;;29.87;38.01;101881.97;5033089;28;20487;-72
2022/07/13 10:46:55;;;;;;;9.25;3.22;;;;;;;30.01;37.83;101877.59;5033124;28;20021;-72
2022/07/13 10:49:30;;;;;;;6.90;2.95;;;;;;;30.27;38.01;101879.81;5032990;28;20107;-72
2022/07/13 10:51:57;;;;;;;8.13;2.88;;;;;;;30.30;36.22;101879.63;5032985;28;20026;-72
2022/07/13 10:54:23;;;;;;;8.60;2.97;;;;;;;30.32;36.30;101885.91;5032888;28;20561;-72
2022/07/13 10:57:13;;;;;;;6.35;3.00;;;;;;;30.57;37.21;101882.66;5033814;28;20025;-72
2022/07/13 10:59:47;;;;;;;10.50;3.00;;;;;;;30.58;36.23;101887.16;5030948;28;20044;-72
2022/07/13 11:02:41;;;;;;;6.30;2.95;;;;;;;30.43;36.07;101886.16;5039459;28;20385;-72
2022/07/13 11:05:07;;;;;;;5.57;2.80;;;;;;;30.21;35.99;101890.19;5039330;28;20021;-72
2022/07/13 11:07:44;;;;;;;8.13;3.08;;;;;;;30.17;36.27;101884.91;5039774;28;20048;-72
2022/07/13 11:10:26;;;;;;;9.85;3.30;;;;;;;30.17;36.93;101887.63;5039413;28;20482;-72
2022/07/13 11:13:09;;;;;;;9.70;3.00;;;;;;;30.06;37.03;101892.72;5039466;28;20072;-73
2022/07/13 11:15:45;;;;;;;6.18;3.08;;;;;;;30.01;37.66;101891.22;5039622;28;20030;-72
2022/07/13 11:18:31;;;;;;;13.15;3.20;;;;;;;29.94;37.69;101891.56;5039199;28;20107;-72
2022/07/13 11:21:15;;;;;;;6.50;3.00;;;;;;;30.25;37.88;101886.31;5039311;28;20451;-72
2022/07/13 11:26:51;;;;;;;10.68;3.20;;;;;;;30.83;36.79;101893.97;5039561;28;20493;-72
2022/07/13 11:29:46;;;;;;;5.80;3.15;;;;;;;30.95;36.83;101889.66;5039334;28;20033;-73
2022/07/13 11:32:12;;;;;;;11.40;3.42;;;;;;;31.08;36.57;101896.13;5039261;28;20072;-72
2022/07/13 11:34:38;;;;;;;11.15;3.47;;;;;;;31.28;36.64;101898.59;5039119;28;20040;-72